createdAt,value
2018-07-17T00:00:28.201Z,6.70
2018-07-17T00:02:57.358Z,4.03
2018-07-17T00:05:26.543Z,3.10
2018-07-17T00:07:55.933Z,3.37
2018-07-17T00:10:25.555Z,3.43
2018-07-17T00:12:55.169Z,3.43
2018-07-17T00:15:24.557Z,3.03
2018-07-17T00:20:16.316Z,5.70
2018-07-17T00:22:45.513Z,5.93
2018-07-17T00:25:14.709Z,3.13
2018-07-17T00:27:44.176Z,2.83
2018-07-17T00:30:13.583Z,3.10
2018-07-17T00:32:42.995Z,5.13
2018-07-17T00:35:12.428Z,3.17
2018-07-17T00:37:41.607Z,3.83
2018-07-17T00:40:10.786Z,3.10
2018-07-17T00:42:39.983Z,3.30
2018-07-17T00:45:09.811Z,3.17
2018-07-17T00:47:39.195Z,3.40
2018-07-17T00:50:08.619Z,3.77
2018-07-17T00:52:38.053Z,3.73
2018-07-17T00:55:07.471Z,2.83
2018-07-17T00:57:36.763Z,3.53
2018-07-17T01:00:05.953Z,4.23
2018-07-17T01:02:40.947Z,3.03
2018-07-17T01:05:15.828Z,2.90
2018-07-17T01:07:50.951Z,3.50
2018-07-17T01:10:25.929Z,3.90
2018-07-17T01:12:54.679Z,3.27
2018-07-17T01:15:30.385Z,3.23
2018-07-17T01:18:00.015Z,3.97
2018-07-17T01:20:29.669Z,3.20
2018-07-17T01:22:59.751Z,3.30
2018-07-17T01:25:29.396Z,4.00
2018-07-17T01:27:59.043Z,5.90
2018-07-17T01:30:28.647Z,3.77
2018-07-17T01:32:58.072Z,2.67
2018-07-17T01:35:29.515Z,2.90
2018-07-17T01:37:58.969Z,2.73
2018-07-17T01:40:28.377Z,3.27
2018-07-17T01:42:57.651Z,3.60
2018-07-17T01:45:27.011Z,3.17
2018-07-17T01:47:56.418Z,3.53
2018-07-17T01:50:25.835Z,3.40
2018-07-17T01:52:55.450Z,3.03
2018-07-17T01:55:24.863Z,2.90
2018-07-17T01:57:54.132Z,2.80
2018-07-17T02:00:23.328Z,3.27
2018-07-17T02:02:52.513Z,3.80
2018-07-17T02:05:21.995Z,3.20
2018-07-17T02:07:51.666Z,3.70
2018-07-17T02:10:21.313Z,3.67
2018-07-17T02:12:50.699Z,2.93
2018-07-17T02:15:19.870Z,3.53
2018-07-17T02:17:49.302Z,3.47
2018-07-17T02:20:18.686Z,3.47
2018-07-17T02:22:48.104Z,4.70
2018-07-17T02:25:17.468Z,3.83
2018-07-17T02:27:46.869Z,3.70
2018-07-17T02:30:16.340Z,4.00
2018-07-17T02:32:45.758Z,3.17
2018-07-17T02:35:15.146Z,3.43
2018-07-17T02:37:44.323Z,3.70
2018-07-17T02:40:13.844Z,3.47
2018-07-17T02:42:43.528Z,3.73
2018-07-17T02:45:14.327Z,3.23
2018-07-17T02:47:43.496Z,4.57
2018-07-17T02:50:12.654Z,3.80
2018-07-17T02:52:41.827Z,3.47
2018-07-17T02:55:10.998Z,4.30
2018-07-17T02:57:40.207Z,3.37
2018-07-17T03:00:09.398Z,3.20
2018-07-17T03:02:38.588Z,3.00
2018-07-17T03:05:07.772Z,3.53
2018-07-17T03:07:37.035Z,3.50
2018-07-17T03:10:06.310Z,3.70
2018-07-17T03:12:35.500Z,3.60
2018-07-17T03:15:04.695Z,4.03
2018-07-17T03:17:34.120Z,4.80
2018-07-17T03:20:03.762Z,4.80
2018-07-17T03:22:33.145Z,3.83
2018-07-17T03:25:02.322Z,3.90
2018-07-17T03:27:31.514Z,4.33
2018-07-17T03:30:00.957Z,4.03
2018-07-17T03:32:30.686Z,3.33
2018-07-17T03:35:00.067Z,3.93
2018-07-17T03:37:29.265Z,4.00
2018-07-17T03:39:58.456Z,3.40
2018-07-17T03:42:27.762Z,3.03
2018-07-17T03:44:57.052Z,3.20
2018-07-17T03:47:26.352Z,4.33
2018-07-17T03:49:55.788Z,3.20
2018-07-17T03:52:25.425Z,3.10
2018-07-17T03:54:55.073Z,2.80
2018-07-17T03:57:24.792Z,3.80
2018-07-17T03:59:54.484Z,4.07
2018-07-17T04:02:24.926Z,3.60
2018-07-17T04:04:54.384Z,3.10
2018-07-17T04:07:24.001Z,3.10
2018-07-17T04:09:53.204Z,3.03
2018-07-17T04:12:23.026Z,2.60
2018-07-17T04:14:52.680Z,3.00
2018-07-17T04:17:22.335Z,4.20
2018-07-17T04:19:52.000Z,4.30
2018-07-17T04:22:21.642Z,3.37
2018-07-17T04:24:51.084Z,4.13
2018-07-17T04:27:21.220Z,3.80
2018-07-17T04:29:50.504Z,3.80
2018-07-17T04:32:19.669Z,3.97
2018-07-17T04:34:48.842Z,3.87
2018-07-17T04:37:18.028Z,3.83
2018-07-17T04:39:47.245Z,3.63
2018-07-17T04:42:16.702Z,4.30
2018-07-17T04:44:46.376Z,4.67
2018-07-17T04:47:15.775Z,5.10
2018-07-17T04:49:45.431Z,5.57
2018-07-17T04:52:14.871Z,5.43
2018-07-17T04:54:44.101Z,10.73
2018-07-17T04:57:13.541Z,6.37
2018-07-17T04:59:42.990Z,6.70
2018-07-17T05:02:12.170Z,8.93
2018-07-17T05:04:41.359Z,7.13
2018-07-17T05:07:10.904Z,6.40
2018-07-17T05:09:40.339Z,7.10
2018-07-17T05:12:09.643Z,7.00
2018-07-17T05:14:38.838Z,5.97
2018-07-17T05:17:10.694Z,6.77
2018-07-17T05:19:39.991Z,7.67
2018-07-17T05:22:09.170Z,7.30
2018-07-17T05:24:38.375Z,7.30
2018-07-17T05:27:07.557Z,8.60
2018-07-17T05:29:36.853Z,8.23
2018-07-17T05:32:06.341Z,10.50
2018-07-17T05:34:35.792Z,9.10
2018-07-17T05:37:05.029Z,11.63
2018-07-17T05:39:35.035Z,9.23
2018-07-17T05:42:04.269Z,10.80
2018-07-17T05:44:33.666Z,8.93
2018-07-17T05:47:03.614Z,10.80
2018-07-17T05:49:33.367Z,11.43
2018-07-17T05:52:03.554Z,11.73
2018-07-17T05:54:34.914Z,11.40
2018-07-17T05:57:04.794Z,10.30
2018-07-17T05:59:34.056Z,9.67
2018-07-17T06:02:03.328Z,9.20
2018-07-17T06:04:32.797Z,8.70
2018-07-17T06:07:02.813Z,8.27
2018-07-17T06:09:32.667Z,7.30
2018-07-17T06:12:02.486Z,7.77
2018-07-17T06:14:32.438Z,6.53
2018-07-17T06:17:02.685Z,7.20
2018-07-17T06:19:32.644Z,6.30
2018-07-17T06:22:03.016Z,6.97
2018-07-17T06:24:32.883Z,5.83
2018-07-17T06:27:03.362Z,6.33
2018-07-17T06:29:32.915Z,5.60
2018-07-17T06:32:02.282Z,7.10
2018-07-17T06:34:31.589Z,5.37
2018-07-17T06:37:01.774Z,4.83
2018-07-17T06:39:31.287Z,5.00
2018-07-17T06:42:00.807Z,5.90
2018-07-17T06:44:31.887Z,3.90
2018-07-17T06:47:01.506Z,4.07
2018-07-17T06:49:30.921Z,3.90
2018-07-17T06:52:00.491Z,4.40
2018-07-17T06:54:30.236Z,4.23
2018-07-17T06:57:00.222Z,4.53
2018-07-17T06:59:29.699Z,3.53
2018-07-17T07:01:59.534Z,3.30
2018-07-17T07:04:30.083Z,3.67
2018-07-17T07:06:59.546Z,3.70
2018-07-17T07:09:30.118Z,3.10
2018-07-17T07:11:59.796Z,3.10
2018-07-17T07:14:29.224Z,3.73
2018-07-17T07:16:58.908Z,3.13
2018-07-17T07:19:29.979Z,3.30
2018-07-17T07:21:59.605Z,5.43
2018-07-17T07:24:28.803Z,4.43
2018-07-17T07:26:58.440Z,4.30
2018-07-17T07:29:28.559Z,3.80
2018-07-17T07:31:57.958Z,3.33
2018-07-17T07:34:27.592Z,3.70
2018-07-17T07:36:57.450Z,3.00
2018-07-17T07:39:26.918Z,3.50
2018-07-17T07:41:56.221Z,3.30
2018-07-17T07:44:25.630Z,4.63
2018-07-17T07:46:55.163Z,3.13
2018-07-17T07:49:25.034Z,3.60
2018-07-17T07:51:54.482Z,3.53
2018-07-17T07:54:24.151Z,3.47
2018-07-17T07:56:53.888Z,3.40
2018-07-17T07:59:23.397Z,4.23
2018-07-17T08:01:52.653Z,3.50
2018-07-17T08:04:22.148Z,3.97
2018-07-17T08:06:51.850Z,3.27
2018-07-17T08:09:21.599Z,4.73
2018-07-17T08:11:51.194Z,2.87
2018-07-17T08:14:21.468Z,3.70
2018-07-17T08:16:51.106Z,3.33
2018-07-17T08:19:20.984Z,2.83
2018-07-17T08:21:50.764Z,3.23
2018-07-17T08:24:21.119Z,4.00
2018-07-17T08:26:50.944Z,2.93
2018-07-17T08:29:20.738Z,2.40
2018-07-17T08:31:50.442Z,3.37
2018-07-17T08:34:20.804Z,2.93
2018-07-17T08:36:50.248Z,2.97
2018-07-17T08:39:19.586Z,2.60
2018-07-17T08:41:49.083Z,2.37
2018-07-17T08:44:18.772Z,2.60
2018-07-17T08:46:49.204Z,4.03
2018-07-17T08:49:19.231Z,3.00
2018-07-17T08:51:48.966Z,2.60
2018-07-17T08:54:18.423Z,2.77
2018-07-17T08:56:47.971Z,2.50
2018-07-17T08:59:17.383Z,3.87
2018-07-17T09:01:46.586Z,2.30
2018-07-17T09:04:16.572Z,2.93
2018-07-17T09:06:46.018Z,2.73
2018-07-17T09:09:15.212Z,2.20
2018-07-17T09:11:44.408Z,4.80
2018-07-17T09:14:13.632Z,2.80
2018-07-17T09:16:44.796Z,2.20
2018-07-17T09:19:14.186Z,2.90
2018-07-17T09:21:43.403Z,2.67
2018-07-17T09:24:12.582Z,4.30
2018-07-17T09:26:41.760Z,2.70
2018-07-17T09:29:11.227Z,2.57
2018-07-17T09:31:40.898Z,2.57
2018-07-17T09:34:10.526Z,2.73
2018-07-17T09:36:40.242Z,2.50
2018-07-17T09:39:09.820Z,2.63
2018-07-17T09:41:39.310Z,3.10
2018-07-17T09:44:08.528Z,1.90
2018-07-17T09:46:38.766Z,3.40
2018-07-17T09:49:08.410Z,2.30
2018-07-17T09:51:37.813Z,2.60
2018-07-17T09:54:07.298Z,2.30
2018-07-17T09:56:36.971Z,2.17
2018-07-17T09:59:06.391Z,3.00
2018-07-17T10:01:40.993Z,2.60
2018-07-17T10:04:10.492Z,2.47
2018-07-17T10:06:39.943Z,2.93
2018-07-17T10:09:09.127Z,3.40
2018-07-17T10:11:38.624Z,3.73
2018-07-17T10:14:08.311Z,2.30
2018-07-17T10:16:37.747Z,2.27
2018-07-17T10:19:06.948Z,2.50
2018-07-17T10:21:36.142Z,4.63
2018-07-17T10:24:05.851Z,2.20
2018-07-17T10:26:35.523Z,2.33
2018-07-17T10:29:04.904Z,2.80
2018-07-17T10:31:34.112Z,2.53
2018-07-17T10:34:03.640Z,2.33
2018-07-17T10:36:33.088Z,2.90
2018-07-17T10:39:02.278Z,2.43
2018-07-17T10:41:31.510Z,2.40
2018-07-17T10:44:00.721Z,2.33
2018-07-17T10:46:29.931Z,2.50
2018-07-17T10:48:59.158Z,2.83
2018-07-17T10:51:28.646Z,2.30
2018-07-17T10:53:58.299Z,3.10
2018-07-17T10:56:28.013Z,2.40
2018-07-17T10:58:57.736Z,2.20
2018-07-17T11:01:26.953Z,3.90
2018-07-17T11:03:56.400Z,1.93
2018-07-17T11:06:25.835Z,2.67
2018-07-17T11:08:55.002Z,2.67
2018-07-17T11:11:24.437Z,2.57
2018-07-17T11:13:53.838Z,2.87
2018-07-17T11:16:23.284Z,2.80
2018-07-17T11:18:52.711Z,2.67
2018-07-17T11:21:22.133Z,5.27
2018-07-17T11:23:51.553Z,3.10
2018-07-17T11:26:20.762Z,3.10
2018-07-17T11:28:50.208Z,3.00
2018-07-17T11:31:19.824Z,2.53
2018-07-17T11:33:49.224Z,2.30
2018-07-17T11:36:18.665Z,4.00
2018-07-17T11:38:48.511Z,4.33
2018-07-17T11:41:17.927Z,2.87
2018-07-17T11:43:48.084Z,2.40
2018-07-17T11:46:18.239Z,2.70
2018-07-17T11:48:47.638Z,2.90
2018-07-17T11:51:17.078Z,2.67
2018-07-17T11:53:46.760Z,3.70
2018-07-17T11:56:16.396Z,2.80
2018-07-17T11:58:46.065Z,2.60
2018-07-17T12:01:15.560Z,2.93
2018-07-17T12:03:45.605Z,2.93
2018-07-17T12:06:14.833Z,2.80
2018-07-17T12:08:44.323Z,6.50
2018-07-17T12:11:13.711Z,2.70
2018-07-17T12:13:42.987Z,2.87
2018-07-17T12:16:12.403Z,3.00
2018-07-17T12:18:42.085Z,3.10
2018-07-17T12:21:11.501Z,4.03
2018-07-17T12:23:40.946Z,2.90
2018-07-17T12:26:10.442Z,3.30
2018-07-17T12:28:39.697Z,2.90
2018-07-17T12:31:09.927Z,2.97
2018-07-17T12:33:39.621Z,3.20
2018-07-17T12:36:09.511Z,2.93
2018-07-17T12:38:39.143Z,2.37
2018-07-17T12:41:08.850Z,2.73
2018-07-17T12:43:38.513Z,2.40
2018-07-17T12:46:08.177Z,2.37
2018-07-17T12:48:37.581Z,2.50
2018-07-17T12:51:06.781Z,2.60
2018-07-17T12:53:36.023Z,2.30
2018-07-17T12:56:05.166Z,2.33
2018-07-17T12:58:34.723Z,1.97
2018-07-17T13:01:04.131Z,2.60
2018-07-17T13:03:33.324Z,2.73
2018-07-17T13:06:02.558Z,2.07
2018-07-17T13:08:32.005Z,2.60
2018-07-17T13:11:01.397Z,2.20
2018-07-17T13:13:30.590Z,2.53
2018-07-17T13:15:59.808Z,4.27
2018-07-17T13:18:29.264Z,2.40
2018-07-17T13:20:59.039Z,2.67
2018-07-17T13:23:28.685Z,2.83
2018-07-17T13:25:58.382Z,2.63
2018-07-17T13:28:28.035Z,2.50
2018-07-17T13:30:57.729Z,2.73
2018-07-17T13:33:27.193Z,2.60
2018-07-17T13:36:04.225Z,2.80
2018-07-17T13:38:33.443Z,2.47
2018-07-17T13:41:02.652Z,2.73
2018-07-17T13:43:31.952Z,2.77
2018-07-17T13:46:01.222Z,2.90
2018-07-17T13:48:30.635Z,2.90
2018-07-17T13:51:00.308Z,2.80
2018-07-17T13:53:30.233Z,3.07
2018-07-17T13:55:59.666Z,2.70
2018-07-17T13:58:29.102Z,2.40
2018-07-17T14:00:58.805Z,2.50
2018-07-17T14:03:28.481Z,2.50
2018-07-17T14:05:57.859Z,2.47
2018-07-17T14:08:27.051Z,2.10
2018-07-17T14:10:56.534Z,2.47
2018-07-17T14:13:25.956Z,2.57
2018-07-17T14:15:55.410Z,2.30
2018-07-17T14:18:25.108Z,4.80
2018-07-17T14:20:54.574Z,2.30
2018-07-17T14:23:24.061Z,4.10
2018-07-17T14:25:54.002Z,2.40
2018-07-17T14:28:23.397Z,2.30
2018-07-17T14:30:52.844Z,2.60
2018-07-17T14:33:22.274Z,2.53
2018-07-17T14:35:51.757Z,2.87
2018-07-17T14:38:21.544Z,2.40
2018-07-17T14:40:50.800Z,2.53
2018-07-17T14:43:20.019Z,3.13
2018-07-17T14:45:49.702Z,3.90
2018-07-17T14:48:19.453Z,5.90
2018-07-17T14:50:49.055Z,3.00
2018-07-17T14:53:18.524Z,2.60
2018-07-17T14:55:47.702Z,2.80
2018-07-17T14:58:16.898Z,2.80
2018-07-17T15:00:46.314Z,2.83
2018-07-17T15:03:15.718Z,3.27
2018-07-17T15:05:44.913Z,2.80
2018-07-17T15:08:14.145Z,5.40
2018-07-17T15:10:43.946Z,4.13
2018-07-17T15:13:13.608Z,3.90
2018-07-17T15:15:43.460Z,3.40
2018-07-17T15:18:13.361Z,4.23
2018-07-17T15:20:42.769Z,5.23
2018-07-17T15:23:11.948Z,4.30
2018-07-17T15:25:41.152Z,4.53
2018-07-17T15:28:10.399Z,4.43
2018-07-17T15:30:39.584Z,4.97
2018-07-17T15:33:08.764Z,5.03
2018-07-17T15:35:37.944Z,4.80
2018-07-17T15:38:08.269Z,3.27
2018-07-17T15:40:37.679Z,3.40
2018-07-17T15:43:06.944Z,3.70
2018-07-17T15:45:36.122Z,3.70
2018-07-17T15:48:05.570Z,3.63
2018-07-17T15:50:35.258Z,4.10
2018-07-17T15:53:04.978Z,3.80
2018-07-17T15:55:39.716Z,6.90
2018-07-17T15:58:08.896Z,6.67
2018-07-17T16:00:38.084Z,4.23
2018-07-17T16:03:07.308Z,4.97
2018-07-17T16:05:36.500Z,5.47
2018-07-17T16:08:06.711Z,4.90
2018-07-17T16:10:36.180Z,5.67
2018-07-17T16:13:05.586Z,6.87
2018-07-17T16:15:35.037Z,6.70
2018-07-17T16:18:04.736Z,6.20
2018-07-17T16:20:34.150Z,7.27
2018-07-17T16:23:04.268Z,6.43
2018-07-17T16:25:36.296Z,7.20
2018-07-17T16:28:05.732Z,8.10
2018-07-17T16:30:34.912Z,9.33
2018-07-17T16:33:04.342Z,8.80
2018-07-17T16:35:34.006Z,9.57
2018-07-17T16:38:03.515Z,10.00
2018-07-17T16:40:32.972Z,10.53
2018-07-17T16:43:02.362Z,9.80
2018-07-17T16:45:32.648Z,10.87
2018-07-17T16:48:01.823Z,10.40
2018-07-17T16:50:31.234Z,11.03
2018-07-17T16:53:00.726Z,10.77
2018-07-17T16:55:30.239Z,10.37
2018-07-17T16:57:59.620Z,11.30
2018-07-17T17:00:29.048Z,10.33
2018-07-17T17:02:58.519Z,10.90
2018-07-17T17:05:28.818Z,10.80
2018-07-17T17:07:58.271Z,12.40
2018-07-17T17:10:27.674Z,11.70
2018-07-17T17:12:56.868Z,11.50
2018-07-17T17:15:26.058Z,12.10
2018-07-17T17:17:55.280Z,11.00
2018-07-17T17:20:24.772Z,12.57
2018-07-17T17:22:54.236Z,14.00
2018-07-17T17:25:23.440Z,14.77
2018-07-17T17:27:52.966Z,14.50
2018-07-17T17:30:22.400Z,12.93
2018-07-17T17:32:51.952Z,12.07
2018-07-17T17:35:21.322Z,13.27
2018-07-17T17:37:50.789Z,14.00
2018-07-17T17:40:20.248Z,13.53
2018-07-17T17:42:49.441Z,12.70
2018-07-17T17:45:18.982Z,13.40
2018-07-17T17:47:48.627Z,12.33
2018-07-17T17:50:18.282Z,13.00
2018-07-17T17:52:47.970Z,12.50
2018-07-17T17:55:17.643Z,12.10
2018-07-17T17:57:47.320Z,11.90
2018-07-17T18:00:16.728Z,15.93
2018-07-17T18:02:46.006Z,11.93
2018-07-17T18:05:15.264Z,11.90
2018-07-17T18:07:44.758Z,12.33
2018-07-17T18:10:14.436Z,11.77
2018-07-17T18:12:44.135Z,11.93
2018-07-17T18:15:13.582Z,11.03
2018-07-17T18:17:42.817Z,11.40
2018-07-17T18:20:12.304Z,11.77
2018-07-17T18:22:41.749Z,11.33
2018-07-17T18:25:11.010Z,12.73
2018-07-17T18:27:40.250Z,12.90
2018-07-17T18:30:10.978Z,12.77
2018-07-17T18:32:40.275Z,13.00
2018-07-17T18:35:09.755Z,12.30
2018-07-17T18:37:39.095Z,12.53
2018-07-17T18:40:08.575Z,10.77
2018-07-17T18:42:37.794Z,11.57
2018-07-17T18:45:11.905Z,12.77
2018-07-17T18:47:41.407Z,11.37
2018-07-17T18:50:13.240Z,11.80
2018-07-17T18:52:40.563Z,10.83
2018-07-17T18:55:10.129Z,11.60
2018-07-17T18:57:39.616Z,10.87
2018-07-17T19:00:09.333Z,13.50
2018-07-17T19:02:38.758Z,11.50
2018-07-17T19:05:08.264Z,11.50
2018-07-17T19:07:37.693Z,10.83
2018-07-17T19:10:06.931Z,12.27
2018-07-17T19:12:36.290Z,10.33
2018-07-17T19:15:05.637Z,10.53
2018-07-17T19:17:34.944Z,10.47
2018-07-17T19:20:04.407Z,11.30
2018-07-17T19:22:34.042Z,10.53
2018-07-17T19:25:03.538Z,10.20
2018-07-17T19:27:33.259Z,11.90
2018-07-17T19:30:02.704Z,10.43
2018-07-17T19:32:31.891Z,11.93
2018-07-17T19:35:01.089Z,11.17
2018-07-17T19:37:31.520Z,13.13
2018-07-17T19:40:00.961Z,10.47
2018-07-17T19:42:30.187Z,16.73
2018-07-17T19:44:59.418Z,9.87
2018-07-17T19:47:28.760Z,13.97
2018-07-17T19:49:58.148Z,10.43
2018-07-17T19:52:27.591Z,11.90
2018-07-17T19:54:56.815Z,11.40
2018-07-17T19:57:26.037Z,12.40
2018-07-17T19:59:55.527Z,11.67
2018-07-17T20:02:24.940Z,10.97
2018-07-17T20:04:54.145Z,12.57
2018-07-17T20:07:23.327Z,11.63
2018-07-17T20:09:52.526Z,11.60
2018-07-17T20:12:21.991Z,11.70
2018-07-17T20:14:51.446Z,10.90
2018-07-17T20:17:20.773Z,10.87
2018-07-17T20:19:50.009Z,11.03
2018-07-17T20:22:19.873Z,9.97
2018-07-17T20:24:49.586Z,10.63
2018-07-17T20:27:19.033Z,12.80
2018-07-17T20:29:48.511Z,10.43
2018-07-17T20:32:18.229Z,12.33
2018-07-17T20:34:47.639Z,13.77
2018-07-17T20:37:17.608Z,10.97
2018-07-17T20:39:47.147Z,12.50
2018-07-17T20:42:16.377Z,10.97
2018-07-17T20:44:45.617Z,12.87
2018-07-17T20:47:15.509Z,13.73
2018-07-17T20:49:44.825Z,11.97
2018-07-17T20:52:14.259Z,12.87
2018-07-17T20:54:43.691Z,12.00
2018-07-17T20:57:12.903Z,12.20
2018-07-17T20:59:42.088Z,13.50
2018-07-17T21:02:11.287Z,11.07
2018-07-17T21:04:40.481Z,13.77
2018-07-17T21:07:09.924Z,11.23
2018-07-17T21:09:39.351Z,11.13
2018-07-17T21:12:08.633Z,15.43
2018-07-17T21:14:37.865Z,10.80
2018-07-17T21:17:07.083Z,11.50
2018-07-17T21:19:36.615Z,10.60
2018-07-17T21:22:06.872Z,11.93
2018-07-17T21:24:36.349Z,11.17
2018-07-17T21:27:05.673Z,10.47
2018-07-17T21:29:34.901Z,12.57
2018-07-17T21:32:04.099Z,10.00
2018-07-17T21:34:33.323Z,12.53
2018-07-17T21:37:03.782Z,10.60
2018-07-17T21:39:33.192Z,9.57
2018-07-17T21:42:02.700Z,9.33
2018-07-17T21:44:32.396Z,10.50
2018-07-17T21:47:02.040Z,9.43
2018-07-17T21:49:32.211Z,9.43
2018-07-17T21:52:01.833Z,12.50
2018-07-17T21:54:31.680Z,11.83
2018-07-17T21:57:01.097Z,9.87
2018-07-17T21:59:30.519Z,10.70
2018-07-17T22:01:59.935Z,10.60
2018-07-17T22:04:29.122Z,10.77
2018-07-17T22:06:58.557Z,9.03
2018-07-17T22:09:28.206Z,11.07
2018-07-17T22:11:57.636Z,10.33
2018-07-17T22:14:27.055Z,9.80
2018-07-17T22:16:56.445Z,11.73
2018-07-17T22:19:25.957Z,11.40
2018-07-17T22:21:55.329Z,10.23
2018-07-17T22:24:24.499Z,12.30
2018-07-17T22:26:53.741Z,9.20
2018-07-17T22:29:22.909Z,9.80
2018-07-17T22:31:52.374Z,9.40
2018-07-17T22:34:22.543Z,9.43
2018-07-17T22:36:51.971Z,13.93
2018-07-17T22:39:21.416Z,10.33
2018-07-17T22:41:51.697Z,11.57
2018-07-17T22:44:21.395Z,9.40
2018-07-17T22:46:51.068Z,9.47
2018-07-17T22:49:23.090Z,11.17
2018-07-17T22:51:53.783Z,11.17
2018-07-17T22:54:22.976Z,11.47
2018-07-17T22:56:52.217Z,11.43
2018-07-17T22:59:21.389Z,10.27
2018-07-17T23:01:50.849Z,9.73
2018-07-17T23:04:20.539Z,11.83
2018-07-17T23:06:50.201Z,10.20
2018-07-17T23:09:19.609Z,12.33
2018-07-17T23:11:49.081Z,11.10
2018-07-17T23:14:18.464Z,14.97
2018-07-17T23:16:47.713Z,12.10
2018-07-17T23:19:17.207Z,12.60
2018-07-17T23:21:46.613Z,10.67
2018-07-17T23:24:15.808Z,11.60
2018-07-17T23:26:44.985Z,11.97
2018-07-17T23:29:14.440Z,12.80
2018-07-17T23:31:43.833Z,13.73
2018-07-17T23:34:13.026Z,11.63
2018-07-17T23:36:42.208Z,10.13
2018-07-17T23:39:11.989Z,10.60
2018-07-17T23:41:41.759Z,11.20
2018-07-17T23:44:11.403Z,19.03
2018-07-17T23:46:40.831Z,11.87
2018-07-17T23:49:14.365Z,12.80
2018-07-17T23:51:43.531Z,10.00
2018-07-17T23:54:12.700Z,9.43
2018-07-17T23:56:41.891Z,11.80
2018-07-17T23:59:11.113Z,11.20
